createdAt,value
2022-12-24T00:00:28.158Z,9.96
2022-12-24T00:01:30.066Z,9.95
2022-12-24T00:02:31.986Z,9.96
2022-12-24T00:03:34.020Z,9.94
2022-12-24T00:04:35.860Z,9.94
2022-12-24T00:05:37.655Z,9.94
2022-12-24T00:06:39.451Z,9.93
2022-12-24T00:07:41.267Z,9.94
2022-12-24T00:08:43.122Z,9.96
2022-12-24T00:09:44.915Z,9.97
2022-12-24T00:10:46.704Z,9.99
2022-12-24T00:11:48.497Z,10.01
2022-12-24T00:12:50.354Z,10.02
2022-12-24T00:13:52.157Z,10.03
2022-12-24T00:14:53.947Z,10.03
2022-12-24T00:15:55.726Z,10.03
2022-12-24T00:16:57.598Z,10.04
2022-12-24T00:17:59.465Z,10.04
2022-12-24T00:19:01.262Z,10.05
2022-12-24T00:20:03.030Z,10.06
2022-12-24T00:21:04.821Z,10.07
2022-12-24T00:22:06.604Z,10.05
2022-12-24T00:23:08.431Z,10.05
2022-12-24T00:24:10.229Z,10.07
2022-12-24T00:25:12.032Z,10.07
2022-12-24T00:26:13.914Z,10.08
2022-12-24T00:27:15.749Z,10.08
2022-12-24T00:28:17.555Z,10.08
2022-12-24T00:29:19.329Z,10.09
2022-12-24T00:30:21.113Z,10.08
2022-12-24T00:31:22.941Z,10.08
2022-12-24T00:32:24.676Z,10.07
2022-12-24T00:33:26.512Z,10.08
2022-12-24T00:34:28.286Z,10.08
2022-12-24T00:35:30.057Z,10.07
2022-12-24T00:36:32.157Z,10.07
2022-12-24T00:37:33.968Z,10.06
2022-12-24T00:38:35.775Z,10.06
2022-12-24T00:39:37.550Z,10.07
2022-12-24T00:40:39.437Z,10.08
2022-12-24T00:41:41.233Z,10.08
2022-12-24T00:42:43.030Z,10.08
2022-12-24T00:43:44.867Z,10.08
2022-12-24T00:44:46.680Z,10.09
2022-12-24T00:45:48.493Z,10.08
2022-12-24T00:46:50.361Z,10.09
2022-12-24T00:47:52.140Z,10.10
2022-12-24T00:48:54.003Z,10.09
2022-12-24T00:49:55.792Z,10.10
2022-12-24T00:50:57.645Z,10.09
2022-12-24T00:51:59.373Z,10.07
2022-12-24T00:53:01.160Z,10.06
2022-12-24T00:54:02.994Z,10.06
2022-12-24T00:55:04.789Z,10.05
2022-12-24T00:56:06.887Z,10.05
2022-12-24T00:57:08.673Z,10.05
2022-12-24T00:58:10.465Z,10.06
2022-12-24T00:59:12.341Z,10.07
2022-12-24T01:00:14.791Z,10.08
2022-12-24T01:01:16.676Z,10.06
2022-12-24T01:02:18.885Z,10.06
2022-12-24T01:03:20.776Z,10.06
2022-12-24T01:04:22.665Z,10.05
2022-12-24T01:05:24.456Z,10.04
2022-12-24T01:06:26.347Z,10.04
2022-12-24T01:07:28.135Z,10.05
2022-12-24T01:08:29.927Z,10.05
2022-12-24T01:09:31.736Z,10.04
2022-12-24T01:10:33.555Z,10.03
2022-12-24T01:11:35.301Z,10.03
2022-12-24T01:12:37.106Z,10.03
2022-12-24T01:13:38.891Z,10.04
2022-12-24T01:14:40.779Z,10.04
2022-12-24T01:15:42.603Z,10.04
2022-12-24T01:16:44.431Z,10.04
2022-12-24T01:17:46.239Z,10.03
2022-12-24T01:18:48.037Z,10.03
2022-12-24T01:19:49.856Z,10.02
2022-12-24T01:20:51.951Z,10.00
2022-12-24T01:21:53.766Z,9.98
2022-12-24T01:22:55.523Z,9.98
2022-12-24T01:23:57.310Z,9.98
2022-12-24T01:24:59.122Z,9.97
2022-12-24T01:26:00.917Z,9.98
2022-12-24T01:27:02.885Z,9.99
2022-12-24T01:28:04.661Z,9.99
2022-12-24T01:29:06.420Z,10.00
2022-12-24T01:30:08.872Z,10.01
2022-12-24T01:31:10.742Z,10.01
2022-12-24T01:32:12.551Z,10.00
2022-12-24T01:33:14.689Z,9.99
2022-12-24T01:34:16.430Z,9.98
2022-12-24T01:35:18.270Z,9.99
2022-12-24T01:36:20.071Z,9.99
2022-12-24T01:37:21.848Z,9.99
2022-12-24T01:38:23.615Z,10.00
2022-12-24T01:39:25.406Z,10.00
2022-12-24T01:40:27.333Z,9.99
2022-12-24T01:41:29.110Z,9.97
2022-12-24T01:42:30.890Z,9.97
2022-12-24T01:43:32.674Z,9.97
2022-12-24T01:44:37.126Z,9.97
2022-12-24T01:45:38.121Z,9.97
2022-12-24T01:46:40.102Z,9.99
2022-12-24T01:47:41.899Z,9.99
2022-12-24T01:48:43.708Z,9.99
2022-12-24T01:49:45.502Z,9.99
2022-12-24T01:50:47.340Z,10.00
2022-12-24T01:51:50.251Z,10.00
2022-12-24T01:52:52.019Z,10.01
2022-12-24T01:53:53.826Z,10.01
2022-12-24T01:54:55.607Z,10.01
2022-12-24T01:55:57.439Z,10.01
2022-12-24T01:56:59.322Z,10.01
2022-12-24T01:58:01.222Z,10.00
2022-12-24T01:59:03.025Z,9.99
2022-12-24T02:00:04.924Z,10.00
2022-12-24T02:01:06.844Z,10.00
2022-12-24T02:02:08.999Z,9.99
2022-12-24T02:03:10.940Z,9.99
2022-12-24T02:04:12.803Z,10.01
2022-12-24T02:05:14.600Z,10.01
2022-12-24T02:06:16.423Z,10.01
2022-12-24T02:07:18.238Z,10.01
2022-12-24T02:08:20.051Z,10.01
2022-12-24T02:09:21.880Z,10.03
2022-12-24T02:10:23.792Z,10.03
2022-12-24T02:11:25.634Z,10.04
2022-12-24T02:12:27.464Z,10.05
2022-12-24T02:13:29.273Z,10.05
2022-12-24T02:14:31.077Z,10.05
2022-12-24T02:15:32.901Z,10.05
2022-12-24T02:16:35.151Z,10.04
2022-12-24T02:17:36.983Z,10.04
2022-12-24T02:18:38.784Z,10.04
2022-12-24T02:19:40.589Z,10.05
2022-12-24T02:20:42.708Z,10.05
2022-12-24T02:21:44.710Z,10.03
2022-12-24T02:22:46.512Z,10.03
2022-12-24T02:23:48.319Z,10.01
2022-12-24T02:24:50.174Z,10.00
2022-12-24T02:25:51.996Z,10.00
2022-12-24T02:26:54.124Z,9.99
2022-12-24T02:27:55.991Z,9.98
2022-12-24T02:28:57.866Z,9.98
2022-12-24T02:29:59.672Z,9.99
2022-12-24T02:31:01.614Z,10.00
2022-12-24T02:32:03.473Z,10.01
2022-12-24T02:33:05.299Z,10.02
2022-12-24T02:34:07.098Z,10.01
2022-12-24T02:35:08.905Z,10.02
2022-12-24T02:36:11.330Z,10.03
2022-12-24T02:37:13.196Z,10.01
2022-12-24T02:38:15.015Z,10.01
2022-12-24T02:39:16.849Z,9.99
2022-12-24T02:40:18.731Z,10.01
2022-12-24T02:41:20.530Z,10.01
2022-12-24T02:42:22.390Z,10.01
2022-12-24T02:43:24.208Z,10.01
2022-12-24T02:44:26.010Z,10.01
2022-12-24T02:45:27.836Z,10.02
2022-12-24T02:46:29.816Z,10.03
2022-12-24T02:47:34.075Z,10.04
2022-12-24T02:48:35.389Z,10.04
2022-12-24T02:49:37.198Z,10.06
2022-12-24T02:50:39.118Z,10.05
2022-12-24T02:51:40.936Z,10.05
2022-12-24T02:52:42.785Z,10.06
2022-12-24T02:53:44.597Z,10.06
2022-12-24T02:54:46.393Z,10.05
2022-12-24T02:55:48.225Z,10.07
2022-12-24T02:56:50.357Z,10.07
2022-12-24T02:57:52.202Z,10.08
2022-12-24T02:58:54.026Z,10.07
2022-12-24T02:59:55.839Z,10.07
2022-12-24T03:00:57.720Z,10.06
2022-12-24T03:01:59.546Z,10.05
2022-12-24T03:03:01.534Z,10.04
2022-12-24T03:04:03.467Z,10.03
2022-12-24T03:05:05.270Z,10.02
2022-12-24T03:06:08.505Z,10.02
2022-12-24T03:07:10.327Z,10.02
2022-12-24T03:08:12.180Z,10.02
2022-12-24T03:09:13.994Z,10.02
2022-12-24T03:10:15.907Z,10.01
2022-12-24T03:11:17.735Z,10.01
2022-12-24T03:12:19.523Z,10.00
2022-12-24T03:13:21.385Z,10.00
2022-12-24T03:14:23.189Z,10.00
2022-12-24T03:15:25.007Z,10.00
2022-12-24T03:16:26.982Z,10.00
2022-12-24T03:17:28.726Z,10.00
2022-12-24T03:18:30.601Z,10.00
2022-12-24T03:19:32.420Z,10.00
2022-12-24T03:20:34.349Z,10.01
2022-12-24T03:21:36.134Z,10.01
2022-12-24T03:22:37.941Z,10.01
2022-12-24T03:23:39.800Z,10.00
2022-12-24T03:24:41.609Z,10.00
2022-12-24T03:25:43.411Z,10.01
2022-12-24T03:26:45.416Z,10.00
2022-12-24T03:27:47.233Z,10.01
2022-12-24T03:28:49.098Z,9.99
2022-12-24T03:29:50.907Z,10.00
2022-12-24T03:30:53.021Z,10.01
2022-12-24T03:31:54.928Z,10.00
2022-12-24T03:32:56.737Z,10.02
2022-12-24T03:33:58.606Z,10.02
2022-12-24T03:35:00.415Z,10.02
2022-12-24T03:36:02.253Z,10.03
2022-12-24T03:37:04.050Z,10.04
2022-12-24T03:38:05.856Z,10.05
2022-12-24T03:39:07.719Z,10.04
2022-12-24T03:40:10.066Z,10.06
2022-12-24T03:41:11.847Z,10.04
2022-12-24T03:42:13.651Z,10.03
2022-12-24T03:43:15.567Z,10.03
2022-12-24T03:44:17.419Z,10.03
2022-12-24T03:45:19.219Z,10.03
2022-12-24T03:46:21.098Z,10.02
2022-12-24T03:47:22.970Z,10.02
2022-12-24T03:48:29.163Z,10.01
2022-12-24T03:49:28.470Z,10.01
2022-12-24T03:50:30.384Z,10.01
2022-12-24T03:51:32.194Z,10.01
2022-12-24T03:52:34.023Z,10.01
2022-12-24T03:53:35.829Z,10.01
2022-12-24T03:54:37.686Z,10.02
2022-12-24T03:55:39.492Z,10.03
2022-12-24T03:56:41.408Z,10.02
2022-12-24T03:57:43.224Z,10.02
2022-12-24T03:58:45.031Z,10.03
2022-12-24T03:59:46.928Z,10.02
2022-12-24T04:00:48.723Z,10.03
2022-12-24T04:01:50.750Z,10.04
2022-12-24T04:02:52.883Z,10.06
2022-12-24T04:03:54.853Z,10.04
2022-12-24T04:04:56.786Z,10.04
2022-12-24T04:05:58.596Z,10.03
2022-12-24T04:07:00.526Z,10.02
2022-12-24T04:08:02.356Z,10.00
2022-12-24T04:09:04.139Z,9.99
2022-12-24T04:10:06.099Z,9.99
2022-12-24T04:11:10.037Z,10.00
2022-12-24T04:12:11.543Z,9.99
2022-12-24T04:13:13.369Z,10.00
2022-12-24T04:14:15.175Z,9.99
2022-12-24T04:15:17.016Z,10.00
2022-12-24T04:16:18.876Z,9.99
2022-12-24T04:17:20.663Z,9.99
2022-12-24T04:18:22.468Z,9.99
2022-12-24T04:19:24.243Z,10.00
2022-12-24T04:20:26.207Z,9.99
2022-12-24T04:21:27.998Z,9.99
2022-12-24T04:22:29.771Z,9.99
2022-12-24T04:23:31.547Z,9.98
2022-12-24T04:24:33.338Z,10.00
2022-12-24T04:25:35.175Z,10.00
2022-12-24T04:26:37.063Z,10.00
2022-12-24T04:27:38.842Z,10.01
2022-12-24T04:28:40.630Z,10.03
2022-12-24T04:29:42.432Z,10.04
2022-12-24T04:30:44.378Z,10.05
2022-12-24T04:31:46.203Z,10.07
2022-12-24T04:32:48.034Z,10.08
2022-12-24T04:33:49.819Z,10.08
2022-12-24T04:34:51.617Z,10.10
2022-12-24T04:35:53.484Z,10.11
2022-12-24T04:36:55.560Z,10.12
2022-12-24T04:37:57.387Z,10.13
2022-12-24T04:38:59.175Z,10.14
2022-12-24T04:40:00.961Z,10.15
2022-12-24T04:41:02.776Z,10.16
2022-12-24T04:42:04.560Z,10.17
2022-12-24T04:43:06.330Z,10.17
2022-12-24T04:44:08.126Z,10.19
2022-12-24T04:45:09.916Z,10.19
2022-12-24T04:46:12.204Z,10.20
2022-12-24T04:47:14.046Z,10.21
2022-12-24T04:48:15.867Z,10.20
2022-12-24T04:49:17.651Z,10.20
2022-12-24T04:50:19.438Z,10.20
2022-12-24T04:51:21.304Z,10.20
2022-12-24T04:52:23.133Z,10.19
2022-12-24T04:53:24.875Z,10.18
2022-12-24T04:54:26.674Z,10.18
2022-12-24T04:55:28.459Z,10.18
2022-12-24T04:56:30.592Z,10.17
2022-12-24T04:57:32.391Z,10.17
2022-12-24T04:58:34.178Z,10.17
2022-12-24T04:59:35.962Z,10.16
2022-12-24T05:00:38.179Z,10.17
2022-12-24T05:01:40.087Z,10.16
2022-12-24T05:02:41.996Z,10.17
2022-12-24T05:03:43.789Z,10.18
2022-12-24T05:04:45.582Z,10.19
2022-12-24T05:05:47.364Z,10.20
2022-12-24T05:06:49.359Z,10.20
2022-12-24T05:07:51.115Z,10.20
2022-12-24T05:08:52.889Z,10.23
2022-12-24T05:09:54.673Z,10.23
2022-12-24T05:10:58.190Z,10.22
2022-12-24T05:12:00.006Z,10.24
2022-12-24T05:13:01.800Z,10.23
2022-12-24T05:14:03.633Z,10.23
2022-12-24T05:15:05.404Z,10.24
2022-12-24T05:16:07.601Z,10.23
2022-12-24T05:17:09.520Z,10.23
2022-12-24T05:18:11.311Z,10.23
2022-12-24T05:19:13.100Z,10.23
2022-12-24T05:20:15.907Z,10.21
2022-12-24T05:21:17.707Z,10.23
2022-12-24T05:22:19.531Z,10.22
2022-12-24T05:23:21.322Z,10.21
2022-12-24T05:24:23.110Z,10.21
2022-12-24T05:25:24.915Z,10.19
2022-12-24T05:26:26.697Z,10.18
2022-12-24T05:27:28.534Z,10.18
2022-12-24T05:28:30.295Z,10.18
2022-12-24T05:29:32.104Z,10.18
2022-12-24T05:30:34.025Z,10.19
2022-12-24T05:31:35.785Z,10.19
2022-12-24T05:32:37.624Z,10.19
2022-12-24T05:33:39.421Z,10.20
2022-12-24T05:34:41.210Z,10.21
2022-12-24T05:35:43.015Z,10.19
2022-12-24T05:36:44.809Z,10.20
2022-12-24T05:37:46.640Z,10.20
2022-12-24T05:38:48.440Z,10.18
2022-12-24T05:39:50.242Z,10.18
2022-12-24T05:40:52.141Z,10.18
2022-12-24T05:41:53.914Z,10.18
2022-12-24T05:42:55.740Z,10.18
2022-12-24T05:43:57.533Z,10.18
2022-12-24T05:44:59.337Z,10.19
2022-12-24T05:46:01.145Z,10.18
2022-12-24T05:47:02.920Z,10.19
2022-12-24T05:48:04.746Z,10.19
2022-12-24T05:49:06.547Z,10.20
2022-12-24T05:50:08.832Z,10.20
2022-12-24T05:51:10.610Z,10.20
2022-12-24T05:52:12.409Z,10.19
2022-12-24T05:53:14.305Z,10.18
2022-12-24T05:54:16.084Z,10.17
2022-12-24T05:55:17.925Z,10.17
2022-12-24T05:56:19.808Z,10.17
2022-12-24T05:57:21.592Z,10.16
2022-12-24T05:58:23.420Z,10.18
2022-12-24T05:59:25.274Z,10.17
2022-12-24T06:00:27.174Z,10.17
2022-12-24T06:01:28.998Z,10.18
2022-12-24T06:02:30.890Z,10.17
2022-12-24T06:03:32.717Z,10.18
2022-12-24T06:04:34.533Z,10.18
2022-12-24T06:05:36.309Z,10.19
2022-12-24T06:06:38.413Z,10.18
2022-12-24T06:07:40.208Z,10.18
2022-12-24T06:08:42.053Z,10.19
2022-12-24T06:09:43.930Z,10.20
2022-12-24T06:10:45.825Z,10.22
2022-12-24T06:11:47.609Z,10.22
2022-12-24T06:12:49.421Z,10.24
2022-12-24T06:13:51.251Z,10.26
2022-12-24T06:14:53.065Z,10.27
2022-12-24T06:15:54.890Z,10.28
2022-12-24T06:16:56.643Z,10.28
2022-12-24T06:17:58.447Z,10.27
2022-12-24T06:19:00.285Z,10.27
2022-12-24T06:20:02.068Z,10.27
2022-12-24T06:21:03.832Z,10.28
2022-12-24T06:22:05.619Z,10.28
2022-12-24T06:23:07.514Z,10.28
2022-12-24T06:24:09.418Z,10.27
2022-12-24T06:25:11.216Z,10.27
2022-12-24T06:26:13.606Z,10.27
2022-12-24T06:27:15.402Z,10.26
2022-12-24T06:28:17.192Z,10.26
2022-12-24T06:29:19.030Z,10.25
2022-12-24T06:30:20.959Z,10.26
2022-12-24T06:31:22.832Z,10.26
2022-12-24T06:32:24.682Z,10.27
2022-12-24T06:33:26.502Z,10.28
2022-12-24T06:34:28.363Z,10.28
2022-12-24T06:35:30.166Z,10.29
2022-12-24T06:36:32.291Z,10.29
2022-12-24T06:37:34.112Z,10.31
2022-12-24T06:38:35.915Z,10.32
2022-12-24T06:39:37.781Z,10.33
2022-12-24T06:40:39.689Z,10.35
2022-12-24T06:41:41.514Z,10.35
2022-12-24T06:42:43.347Z,10.36
2022-12-24T06:43:45.158Z,10.38
2022-12-24T06:44:47.012Z,10.38
2022-12-24T06:45:48.820Z,10.40
2022-12-24T06:46:50.943Z,10.41
2022-12-24T06:47:52.736Z,10.41
2022-12-24T06:48:54.546Z,10.42
2022-12-24T06:49:56.405Z,10.43
2022-12-24T06:50:58.221Z,10.44
2022-12-24T06:52:00.040Z,10.45
2022-12-24T06:53:01.840Z,10.46
2022-12-24T06:54:03.660Z,10.45
2022-12-24T06:55:05.573Z,10.45
2022-12-24T06:56:07.773Z,10.45
2022-12-24T06:57:09.688Z,10.45
2022-12-24T06:58:11.512Z,10.45
2022-12-24T06:59:13.322Z,10.46
2022-12-24T07:00:15.564Z,10.47
2022-12-24T07:01:17.433Z,10.46
2022-12-24T07:02:19.403Z,10.46
2022-12-24T07:03:21.331Z,10.48
2022-12-24T07:04:23.202Z,10.48
2022-12-24T07:05:25.069Z,10.51
2022-12-24T07:06:26.999Z,10.50
2022-12-24T07:07:28.805Z,10.52
2022-12-24T07:08:30.600Z,10.53
2022-12-24T07:09:32.416Z,10.53
2022-12-24T07:10:34.422Z,10.53
2022-12-24T07:11:36.250Z,10.54
2022-12-24T07:12:38.046Z,10.55
2022-12-24T07:13:39.861Z,10.56
2022-12-24T07:14:41.671Z,10.57
2022-12-24T07:15:44.595Z,10.58
2022-12-24T07:16:46.476Z,10.60
2022-12-24T07:17:48.425Z,10.61
2022-12-24T07:18:50.334Z,10.62
2022-12-24T07:19:52.084Z,10.64
2022-12-24T07:20:54.224Z,10.66
2022-12-24T07:21:56.040Z,10.66
2022-12-24T07:22:57.873Z,10.67
2022-12-24T07:23:59.688Z,10.69
2022-12-24T07:25:01.496Z,10.68
2022-12-24T07:26:03.524Z,10.71
2022-12-24T07:27:05.381Z,10.70
2022-12-24T07:28:07.164Z,10.71
2022-12-24T07:29:08.973Z,10.72
2022-12-24T07:30:11.091Z,10.73
2022-12-24T07:31:13.121Z,10.74
2022-12-24T07:32:15.057Z,10.75
2022-12-24T07:33:16.874Z,10.76
2022-12-24T07:34:18.674Z,10.76
2022-12-24T07:35:20.499Z,10.78
2022-12-24T07:36:22.746Z,10.77
2022-12-24T07:37:24.556Z,10.78
2022-12-24T07:38:26.361Z,10.79
2022-12-24T07:39:28.188Z,10.78
2022-12-24T07:40:30.118Z,10.79
2022-12-24T07:41:36.295Z,10.79
2022-12-24T07:42:35.612Z,10.77
2022-12-24T07:43:37.413Z,10.78
2022-12-24T07:44:39.226Z,10.79
2022-12-24T07:45:41.054Z,10.80
2022-12-24T07:46:43.095Z,10.81
2022-12-24T07:47:45.061Z,10.84
2022-12-24T07:48:46.929Z,10.84
2022-12-24T07:49:48.767Z,10.85
2022-12-24T07:50:50.567Z,10.87
2022-12-24T07:51:52.412Z,10.88
2022-12-24T07:52:54.243Z,10.88
2022-12-24T07:53:56.079Z,10.87
2022-12-24T07:54:57.888Z,10.87
2022-12-24T07:55:59.729Z,10.88
2022-12-24T07:57:01.606Z,10.87
2022-12-24T07:58:03.415Z,10.89
2022-12-24T07:59:05.239Z,10.90
2022-12-24T08:00:07.439Z,10.92
2022-12-24T08:01:09.292Z,10.93
2022-12-24T08:02:17.918Z,10.94
2022-12-24T08:03:14.981Z,10.94
2022-12-24T08:04:16.914Z,10.95
2022-12-24T08:05:18.742Z,10.95
2022-12-24T08:06:20.617Z,10.96
2022-12-24T08:07:22.476Z,10.97
2022-12-24T08:08:24.292Z,10.97
2022-12-24T08:09:26.111Z,10.98
2022-12-24T08:10:28.014Z,10.99
2022-12-24T08:11:29.814Z,10.98
2022-12-24T08:12:31.765Z,11.01
2022-12-24T08:13:33.576Z,11.02
2022-12-24T08:14:35.387Z,11.04
2022-12-24T08:15:37.313Z,11.04
2022-12-24T08:16:39.251Z,11.06
2022-12-24T08:17:41.056Z,11.07
2022-12-24T08:18:42.871Z,11.08
2022-12-24T08:19:44.683Z,11.09
2022-12-24T08:20:46.605Z,11.10
2022-12-24T08:21:48.430Z,11.10
2022-12-24T08:22:50.298Z,11.11
2022-12-24T08:23:52.102Z,11.13
2022-12-24T08:24:53.913Z,11.13
2022-12-24T08:25:55.756Z,11.15
2022-12-24T08:26:57.656Z,11.16
2022-12-24T08:27:59.602Z,11.18
2022-12-24T08:29:01.432Z,11.18
2022-12-24T08:30:03.251Z,11.20
2022-12-24T08:31:05.143Z,11.20
2022-12-24T08:32:07.139Z,11.21
2022-12-24T08:33:09.063Z,11.22
2022-12-24T08:34:10.936Z,11.23
2022-12-24T08:35:12.683Z,11.23
2022-12-24T08:36:14.810Z,11.24
2022-12-24T08:37:16.608Z,11.24
2022-12-24T08:38:18.478Z,11.25
2022-12-24T08:39:20.302Z,11.26
2022-12-24T08:40:22.119Z,11.27
2022-12-24T08:41:23.953Z,11.26
2022-12-24T08:42:25.826Z,11.25
2022-12-24T08:43:27.718Z,11.25
2022-12-24T08:44:29.496Z,11.25
2022-12-24T08:45:37.977Z,11.25
2022-12-24T08:46:34.940Z,11.25
2022-12-24T08:47:36.777Z,11.26
2022-12-24T08:48:38.594Z,11.27
2022-12-24T08:49:40.385Z,11.27
2022-12-24T08:50:43.526Z,11.25
2022-12-24T08:51:46.488Z,11.25
2022-12-24T08:52:48.368Z,11.26
2022-12-24T08:53:52.340Z,11.26
2022-12-24T08:54:54.174Z,11.26
2022-12-24T08:55:56.484Z,11.25
2022-12-24T08:56:58.374Z,11.25
2022-12-24T08:58:00.163Z,11.25
2022-12-24T08:59:02.081Z,11.25
2022-12-24T09:00:03.810Z,11.26
2022-12-24T09:01:05.676Z,11.24
2022-12-24T09:02:07.689Z,11.24
2022-12-24T09:03:09.607Z,11.25
2022-12-24T09:04:11.414Z,11.25
2022-12-24T09:05:13.212Z,11.26
2022-12-24T09:06:15.308Z,11.26
2022-12-24T09:07:17.102Z,11.27
2022-12-24T09:08:18.885Z,11.26
2022-12-24T09:09:20.687Z,11.27
2022-12-24T09:10:22.620Z,11.27
2022-12-24T09:11:24.359Z,11.25
2022-12-24T09:12:26.144Z,11.24
2022-12-24T09:13:27.933Z,11.24
2022-12-24T09:14:29.770Z,11.25
2022-12-24T09:15:31.589Z,11.24
2022-12-24T09:16:33.531Z,11.23
2022-12-24T09:17:35.357Z,11.22
2022-12-24T09:18:37.152Z,11.21
2022-12-24T09:19:39.999Z,11.20
2022-12-24T09:20:46.764Z,11.20
2022-12-24T09:21:45.366Z,11.19
2022-12-24T09:22:47.162Z,11.20
2022-12-24T09:23:48.950Z,11.20
2022-12-24T09:24:50.795Z,11.20
2022-12-24T09:25:52.582Z,11.20
2022-12-24T09:26:57.947Z,11.18
2022-12-24T09:27:58.184Z,11.16
2022-12-24T09:28:59.965Z,11.17
2022-12-24T09:30:01.857Z,11.17
2022-12-24T09:31:03.650Z,11.16
2022-12-24T09:32:05.484Z,11.16
2022-12-24T09:33:07.337Z,11.17
2022-12-24T09:34:09.120Z,11.16
2022-12-24T09:35:10.969Z,11.14
2022-12-24T09:36:14.554Z,11.13
2022-12-24T09:37:16.328Z,11.12
2022-12-24T09:38:18.129Z,11.12
2022-12-24T09:39:19.915Z,11.12
2022-12-24T09:40:22.105Z,11.10
2022-12-24T09:41:23.876Z,11.11
2022-12-24T09:42:25.648Z,11.10
2022-12-24T09:43:27.440Z,11.10
2022-12-24T09:44:29.238Z,11.10
2022-12-24T09:45:31.520Z,11.10
2022-12-24T09:46:33.516Z,11.10
2022-12-24T09:47:35.275Z,11.11
2022-12-24T09:48:37.054Z,11.11
2022-12-24T09:49:38.840Z,11.11
2022-12-24T09:50:40.771Z,11.10
2022-12-24T09:51:42.603Z,11.09
2022-12-24T09:52:44.381Z,11.09
2022-12-24T09:53:46.154Z,11.09
2022-12-24T09:54:49.837Z,11.08
2022-12-24T09:55:51.727Z,11.07
2022-12-24T09:56:53.516Z,11.09
2022-12-24T09:57:55.293Z,11.08
2022-12-24T09:58:57.079Z,11.09
2022-12-24T09:59:58.865Z,11.09
2022-12-24T10:01:00.937Z,11.08
2022-12-24T10:02:02.863Z,11.10
2022-12-24T10:03:04.679Z,11.10
2022-12-24T10:04:06.548Z,11.09
2022-12-24T10:05:08.321Z,11.11
2022-12-24T10:06:10.243Z,11.13
2022-12-24T10:07:12.026Z,11.14
2022-12-24T10:08:13.824Z,11.16
2022-12-24T10:09:15.524Z,11.16
2022-12-24T10:10:17.413Z,11.17
2022-12-24T10:11:19.230Z,11.18
2022-12-24T10:12:21.015Z,11.19
2022-12-24T10:13:22.823Z,11.20
2022-12-24T10:14:24.606Z,11.22
2022-12-24T10:15:26.397Z,11.22
2022-12-24T10:16:28.354Z,11.23
2022-12-24T10:17:30.143Z,11.23
2022-12-24T10:18:31.935Z,11.24
2022-12-24T10:19:33.760Z,11.24
2022-12-24T10:20:35.548Z,11.25
2022-12-24T10:21:37.362Z,11.26
2022-12-24T10:22:39.850Z,11.29
2022-12-24T10:23:41.647Z,11.28
2022-12-24T10:24:49.862Z,11.31
2022-12-24T10:25:48.060Z,11.30
2022-12-24T10:26:49.923Z,11.30
2022-12-24T10:27:51.755Z,11.30
2022-12-24T10:28:53.518Z,11.30
2022-12-24T10:29:55.306Z,11.31
2022-12-24T10:30:57.490Z,11.31
2022-12-24T10:31:59.382Z,11.35
2022-12-24T10:33:01.157Z,11.35
2022-12-24T10:34:02.980Z,11.35
2022-12-24T10:35:04.750Z,11.36
2022-12-24T10:36:11.842Z,11.38
2022-12-24T10:37:10.484Z,11.40
2022-12-24T10:38:12.295Z,11.41
2022-12-24T10:39:14.085Z,11.43
2022-12-24T10:40:16.300Z,11.45
2022-12-24T10:41:18.084Z,11.47
2022-12-24T10:42:19.968Z,11.46
2022-12-24T10:43:21.757Z,11.48
2022-12-24T10:44:23.559Z,11.50
2022-12-24T10:45:25.350Z,11.51
2022-12-24T10:46:27.222Z,11.53
2022-12-24T10:47:29.088Z,11.55
2022-12-24T10:48:30.900Z,11.56
2022-12-24T10:49:32.661Z,11.57
2022-12-24T10:50:34.564Z,11.57
2022-12-24T10:51:36.356Z,11.57
2022-12-24T10:52:38.178Z,11.58
2022-12-24T10:53:39.964Z,11.58
2022-12-24T10:54:41.765Z,11.57
2022-12-24T10:55:43.586Z,11.57
2022-12-24T10:56:45.395Z,11.58
2022-12-24T10:57:47.237Z,11.59
2022-12-24T10:58:49.075Z,11.60
2022-12-24T10:59:50.879Z,11.61
2022-12-24T11:00:53.021Z,11.62
2022-12-24T11:01:54.898Z,11.62
2022-12-24T11:02:56.992Z,11.63
2022-12-24T11:03:58.907Z,11.63
2022-12-24T11:05:00.740Z,11.63
2022-12-24T11:06:02.556Z,11.64
2022-12-24T11:07:04.381Z,11.65
2022-12-24T11:08:06.199Z,11.65
2022-12-24T11:09:08.045Z,11.65
2022-12-24T11:10:10.401Z,11.64
2022-12-24T11:11:12.202Z,11.64
2022-12-24T11:12:14.006Z,11.63
2022-12-24T11:13:36.892Z,11.64
2022-12-24T11:14:19.540Z,11.64
2022-12-24T11:15:21.385Z,11.63
2022-12-24T11:16:23.397Z,11.63
2022-12-24T11:17:25.251Z,11.63
2022-12-24T11:18:27.185Z,11.62
2022-12-24T11:19:29.423Z,11.63
2022-12-24T11:20:31.327Z,11.64
2022-12-24T11:21:33.142Z,11.65
2022-12-24T11:22:34.950Z,11.66
2022-12-24T11:23:36.805Z,11.66
2022-12-24T11:24:38.652Z,11.66
2022-12-24T11:25:40.478Z,11.66
2022-12-24T11:26:42.405Z,11.67
2022-12-24T11:27:44.251Z,11.68
2022-12-24T11:28:46.152Z,11.67
2022-12-24T11:29:47.964Z,11.67
2022-12-24T11:30:50.074Z,11.67
2022-12-24T11:31:51.933Z,11.68
2022-12-24T11:32:53.800Z,11.69
2022-12-24T11:33:55.727Z,11.70
2022-12-24T11:34:57.522Z,11.71
2022-12-24T11:35:59.343Z,11.70
2022-12-24T11:37:01.383Z,11.72
2022-12-24T11:38:03.189Z,11.72
2022-12-24T11:39:05.043Z,11.72
2022-12-24T11:40:07.570Z,11.70
2022-12-24T11:41:09.418Z,11.72
2022-12-24T11:42:11.264Z,11.71
2022-12-24T11:43:15.020Z,11.68
2022-12-24T11:44:16.737Z,11.70
2022-12-24T11:45:18.557Z,11.70
2022-12-24T11:46:20.599Z,11.70
2022-12-24T11:47:22.500Z,11.70
2022-12-24T11:48:24.303Z,11.72
2022-12-24T11:49:26.214Z,11.70
2022-12-24T11:50:28.348Z,11.71
2022-12-24T11:51:30.163Z,11.72
2022-12-24T11:52:32.074Z,11.72
2022-12-24T11:53:33.907Z,11.73
2022-12-24T11:54:35.746Z,11.74
2022-12-24T11:55:37.590Z,11.74
2022-12-24T11:56:39.505Z,11.74
2022-12-24T11:57:41.322Z,11.74
2022-12-24T11:58:43.126Z,11.73
2022-12-24T11:59:44.990Z,11.73
2022-12-24T12:00:46.984Z,11.72
2022-12-24T12:01:48.803Z,11.70
2022-12-24T12:02:50.597Z,11.68
2022-12-24T12:03:52.396Z,11.68
2022-12-24T12:04:54.253Z,11.69
2022-12-24T12:05:56.104Z,11.67
2022-12-24T12:06:57.904Z,11.67
2022-12-24T12:07:59.711Z,11.66
2022-12-24T12:09:01.517Z,11.64
2022-12-24T12:10:03.428Z,11.65
2022-12-24T12:11:05.239Z,11.66
2022-12-24T12:12:07.047Z,11.66
2022-12-24T12:13:15.015Z,11.66
2022-12-24T12:14:12.483Z,11.67
2022-12-24T12:15:14.350Z,11.68
2022-12-24T12:16:16.157Z,11.66
2022-12-24T12:17:17.986Z,11.66
2022-12-24T12:18:20.116Z,11.66
2022-12-24T12:19:21.931Z,11.65
2022-12-24T12:20:23.913Z,11.65
2022-12-24T12:21:25.716Z,11.66
2022-12-24T12:22:27.535Z,11.66
2022-12-24T12:23:29.364Z,11.66
2022-12-24T12:24:32.597Z,11.65
2022-12-24T12:25:34.542Z,11.64
2022-12-24T12:26:36.463Z,11.65
2022-12-24T12:27:38.264Z,11.65
2022-12-24T12:28:40.072Z,11.64
2022-12-24T12:29:41.880Z,11.64
2022-12-24T12:30:43.846Z,11.64
2022-12-24T12:31:45.709Z,11.62
2022-12-24T12:32:47.704Z,11.61
2022-12-24T12:33:49.497Z,11.60
2022-12-24T12:34:51.307Z,11.57
2022-12-24T12:35:53.190Z,11.56
2022-12-24T12:36:54.996Z,11.56
2022-12-24T12:37:56.823Z,11.55
2022-12-24T12:38:58.627Z,11.55
2022-12-24T12:40:00.471Z,11.54
2022-12-24T12:41:02.321Z,11.53
2022-12-24T12:42:04.267Z,11.53
2022-12-24T12:43:10.803Z,11.56
2022-12-24T12:44:09.702Z,11.54
2022-12-24T12:45:11.526Z,11.56
2022-12-24T12:46:13.759Z,11.57
2022-12-24T12:47:15.638Z,11.58
2022-12-24T12:48:17.445Z,11.59
2022-12-24T12:49:19.251Z,11.58
2022-12-24T12:50:21.063Z,11.58
2022-12-24T12:51:22.979Z,11.57
2022-12-24T12:52:24.795Z,11.56
2022-12-24T12:53:26.609Z,11.56
2022-12-24T12:54:28.422Z,11.57
2022-12-24T12:55:30.245Z,11.59
2022-12-24T12:56:32.315Z,11.60
2022-12-24T12:57:34.120Z,11.60
2022-12-24T12:58:35.929Z,11.62
2022-12-24T12:59:37.792Z,11.62
2022-12-24T13:00:39.662Z,11.64
2022-12-24T13:01:41.712Z,11.62
2022-12-24T13:02:43.786Z,11.62
2022-12-24T13:03:45.684Z,11.62
2022-12-24T13:04:47.512Z,11.62
2022-12-24T13:05:49.333Z,11.60
2022-12-24T13:06:51.285Z,11.60
2022-12-24T13:07:53.061Z,11.61
2022-12-24T13:08:54.850Z,11.62
2022-12-24T13:09:56.648Z,11.62
2022-12-24T13:10:58.742Z,11.61
2022-12-24T13:12:00.567Z,11.59
2022-12-24T13:13:02.670Z,11.58
2022-12-24T13:14:04.459Z,11.57
2022-12-24T13:15:06.231Z,11.57
2022-12-24T13:16:08.704Z,11.56
2022-12-24T13:17:10.553Z,11.55
2022-12-24T13:18:12.347Z,11.54
2022-12-24T13:19:14.140Z,11.55